默认 日期 大小 文件数 浏览量 最新下载 xml
nick磁力链接相关资源由用户搜索指令自动获取,结果来源于网络,本站不存储任何资料,亦不承担任何责任,请于24小时内删除,搜索到9975个磁力,显示前4000条数据,用时7ms。
    ... from torrentgalaxy.to .txt": 689, "nick.cannon.presents.wild.n.out ... .web.x264-cookiemonster.mkv": 328663972, "nick.cannon.presents.wild.n.out ...
创建时间: 2019-08-09 13:04:33 大小:316.32 MB 文件数量:7 热度:3 最近下载:2021-06-17 16:25:58
    {"RARBG.txt": 30, "RARBG_DO_NOT_MIRROR.exe": 99, "nick.cannon.presents.wild.n.out.s13e22.carmella.and.r-truth.720p.web.x264-cookiemonster.mkv": 485379654, "nick.cannon.presents.wild.n.out.s13e22.carmella.and.r-truth.720p.web.x264-cookiemonster.nfo": 449}
创建时间: 2019-08-09 18:46:55 大小:462.89 MB 文件数量:4 热度:5 最近下载:2025-04-23 19:23:05
    ... 1093971474, "No.Good.Nick.2019.PLDUB.S02E02.1080p.NF ... 1055085788, "No.Good.Nick.2019.PLDUB.S02E03.1080p.NF ... 868061349, "No.Good.Nick.2019.PLDUB.S02E04.1080p. ... 866215906, "No.Good.Nick.2019.PLDUB.S02E05.1080p. ... 635812030, "No.Good.Nick.2019.PLDUB.S02E06.1080p. ...
创建时间: 2019-08-09 18:51:43 大小:7.87 GB 文件数量:11 热度:7 最近下载:2025-05-10 14:50:02
    ... avi": 344865304, "El Secreto De Nick - Temporada 2 [HDTV][Cap.202 ... avi": 362951470, "El Secreto De Nick - Temporada 2 [HDTV][Cap.203 ... avi": 374407600, "El Secreto De Nick - Temporada 2 [HDTV][Cap. ... avi": 319182678, "El Secreto De Nick - Temporada 2 [HDTV][Cap. ...
创建时间: 2019-08-09 20:32:37 大小:3.35 GB 文件数量:12 热度:4 最近下载:2022-11-15 19:56:37
    {"courseupload.com.txt": 216, "2 - Traktor Pro Deck.mp4": 82118200, "1 - Intro & Traktor Pro Mixer.mp4": 171291787, "4 - Traktor Pro Effects and File Browser.mp4": 183893701, "3 - Traktor Pro Deck Loops and Advanced Panel.mp4": 203969298}
创建时间: 2019-08-09 22:34:20 大小:611.57 MB 文件数量:5 热度:4 最近下载:2022-11-12 10:34:58
    ... "SexArt_Espuma-De-Mar_Rosaline-Rosa--Nick-Wolanski_high_0002.jpg": 1744228, "SexArt_Espuma ... -De-Mar_Rosaline-Rosa--Nick-Wolanski_high_0003.jpg": 1130357, " ... SexArt_Espuma-De-Mar_Rosaline-Rosa--Nick-Wolanski_high_0004.jpg": 1096932, " ...
创建时间: 2019-08-09 23:12:10 大小:261.8 MB 文件数量:136 热度:21 最近下载:2025-09-18 19:35:06
    {"RARBG.com.txt": 34, "Sanjay.and.Craig.S03E27.Stuffed.Curse.Pizza.1080p.NICK.WEBRip.AAC2.0.x264-RTN.mkv": 292660735}
创建时间: 2019-08-09 23:33:26 大小:279.1 MB 文件数量:2 热度:6 最近下载:2022-11-12 12:59:40
    {"04-nick_lowe-the_club.mp3": 2826874, "12-nick_lowe-feel_again.mp3": 3959421, "01-nick_lowe-a_better_man.mp3": 2437388, "06-nick_lowe-people_change.mp3": 3258861, "07-nick_lowe-a_man_in_love.mp3": 2697763, "00-nick_lowe-at_my_age-2007.m3u": 423, "00- ...
创建时间: 2019-08-10 02:32:58 大小:36.75 MB 文件数量:15 热度:4 最近下载:2022-11-12 12:26:27
    {"RARBG.txt": 30, "tvmaze.nfo": 1399, "RARBG_DO_NOT_MIRROR.exe": 99, "Lights.Out.With.David.Spade.2019.08.06.Nick.Kroll.Ian.Edwards.Fortune.Feimster.1080p.HDTV.x264-CRiMSON.mkv": 1503138840}
创建时间: 2019-08-10 04:22:00 大小:1.4 GB 文件数量:4 热度:4 最近下载:2022-11-12 10:41:05
    {"We Few US Special Forces in Vietnam.cue": 1628, "We Few US Special Forces in Vietnam.jpg": 38113, "We Few US Special Forces in Vietnam.mp3": 406893185, "We Few US Special Forces in Vietnam.nfo": 905}
创建时间: 2019-08-10 04:45:11 大小:388.08 MB 文件数量:4 热度:5 最近下载:2024-12-24 04:17:02
    ... Harvey.Beaks.S01E35.Yampions.720p.NICK.WEBRip.Rus.Eng-v.serij2013 ... Harvey.Beaks.S01E39.Steamgate.720p.NICK.WEBRip.Rus.Eng-v.serij2013 ... Harvey.Beaks.S01E41.Terrybear.720p.NICK.WEBRip.Rus.Eng-v.serij2013 ... .S01E20.Certified.Babysitter.720p.NICK.WEBRip.Rus.Eng-v. ...
创建时间: 2019-08-10 07:07:07 大小:13.46 GB 文件数量:52 热度:5 最近下载:2025-01-10 06:44:02
    ... .log": 11800, "Nick Of Time.accurip": 6820, "Nick Of Time (Cue ... Love Letter.flac": 25001359, "01 - Nick Of Time.flac": 21810264, "07 ... ": 21679567, "Play - Bonnie Raitt - Nick Of Time.m3u": 848, "Bonnie ... Raitt - 1989 - Nick of Time [EAC FLAC].txt ...
创建时间: 2019-08-10 07:48:10 大小:254.53 MB 文件数量:22 热度:4 最近下载:2022-11-12 10:39:40
    ... A Sentimental Mood.flac": 62173043, "Nick Brignola - What It Takes.log ... ": 11066, "Nick Brignola - What It Takes.m3u ...
创建时间: 2019-08-10 08:14:03 大小:431.75 MB 文件数量:14 热度:4 最近下载:2022-11-12 10:56:29
    ... www.torrenting.com.txt": 84, "Nick.Thune.Folk.Hero.720p.Netflix ... .AAC2.0.PRiNCE.mkv": 1077293751, "Nick.Thune.Folk.Hero.720p.Netflix ...
创建时间: 2019-08-10 12:54:46 大小:1.01 GB 文件数量:7 热度:5 最近下载:2024-12-30 23:59:01
    {"To keep us going please read.txt": 161, "Nick.Cannon.Presents.Wild.N.Out.S09E00.15.Bad.and.Booty-est.Moments.HDTV.x264-CRiMSON[ettv].mkv": 264125784}
创建时间: 2019-08-10 23:12:29 大小:251.89 MB 文件数量:2 热度:4 最近下载:2022-11-15 20:19:29
    ... www.torrenting.org.txt": 86, "nick.cannon.presents.wild.n.out ... .web.x264-cookiemonster.mkv": 789752526, "nick.cannon.presents.wild.n.out ...
创建时间: 2019-08-10 23:40:35 大小:754.13 MB 文件数量:8 热度:4 最近下载:2022-11-12 09:57:38
    {"Downloaded from www.ETTV.tv .txt": 193, "Nick.Cannon.Presents.Wild.N.Out.S09E00.9.Baddest.Burns.and.Bar.HDTV.x264-CRiMSON[ettv].mkv": 255654167}
创建时间: 2019-08-11 00:37:51 大小:243.81 MB 文件数量:2 热度:5 最近下载:2024-12-19 06:28:02
    {"free audiobook version.txt": 534, "Requiem for Medusa by Jason Anspach, Nick Cole.epub": 434638}
创建时间: 2019-08-11 19:42:39 大小:424.97 KB 文件数量:2 热度:8 最近下载:2025-06-14 07:09:01
    {"iExTV.jpg": 56686, "[ Www.iExTV.Com ].txt": 22, "Torrent-Seed-by-www.quickrdp.com.txt": 828, "Uncle Nick 2015 720p BRRip 600 MB - iExTV.mp4": 630499902}
创建时间: 2019-08-11 20:11:27 大小:601.35 MB 文件数量:4 热度:4 最近下载:2022-11-12 10:21:52
    {"Warhammer Grudgelore.cbr": 145622747, "Warhammer Grudgelore.pdf": 42106113}
创建时间: 2019-08-11 23:17:20 大小:179.03 MB 文件数量:2 热度:10 最近下载:2025-10-04 12:24:04